Time;durP1;ratioP1;P1;durP2;ratioP2;P2;SDS_P1;SDS_P2;PMS_P1;PMS_P2;Temp;Humidity;BMP_temperature;BMP_pressure;BME280_temperature;BME280_humidity;BME280_pressure;Samples;Min_cycle;Max_cycle;Signal;HPM_P1;HPM_P2
2021/03/03 00:02:16;;;;;;;68.75;45.65;;;8.60;69.80;;;;;;5094397;28;20449;-79
2021/03/03 00:04:42;;;;;;;68.95;43.78;;;8.60;69.40;;;;;;5095699;28;20111;-79
2021/03/03 00:07:07;;;;;;;67.53;45.22;;;8.70;69.10;;;;;;5094587;28;20030;-80
2021/03/03 00:09:33;;;;;;;64.97;45.00;;;8.60;69.30;;;;;;5094322;28;20484;-80
2021/03/03 00:11:58;;;;;;;78.53;46.08;;;8.60;69.40;;;;;;5094318;28;20028;-80
2021/03/03 00:14:24;;;;;;;76.38;47.00;;;8.60;69.30;;;;;;5094505;28;20028;-79
2021/03/03 00:16:49;;;;;;;74.80;45.90;;;8.70;68.90;;;;;;5095355;28;20032;-79
2021/03/03 00:19:15;;;;;;;73.45;46.33;;;8.60;69.00;;;;;;5095665;28;20028;-80
2021/03/03 00:21:41;;;;;;;81.25;49.17;;;8.60;69.40;;;;;;5094401;28;20165;-79
2021/03/03 00:24:07;;;;;;;79.97;51.92;;;8.50;69.60;;;;;;5077389;28;20392;-79
2021/03/03 00:26:32;;;;;;;80.70;49.13;;;8.50;70.30;;;;;;5095668;28;20032;-79
2021/03/03 00:28:58;;;;;;;76.55;50.65;;;8.50;70.70;;;;;;5095440;28;20035;-79
2021/03/03 00:31:23;;;;;;;83.38;48.65;;;8.50;70.80;;;;;;5095293;28;20028;-80
2021/03/03 00:33:49;;;;;;;81.40;49.67;;;8.50;70.10;;;;;;5095100;28;20054;-79
2021/03/03 00:36:15;;;;;;;79.07;48.83;;;8.50;69.60;;;;;;5095242;28;20026;-79
2021/03/03 00:38:40;;;;;;;82.43;48.05;;;8.60;69.20;;;;;;5095427;28;20028;-80
2021/03/03 00:41:06;;;;;;;71.05;45.85;;;8.60;68.80;;;;;;5094785;28;20032;-80
2021/03/03 00:43:32;;;;;;;72.00;46.08;;;8.60;68.60;;;;;;5095974;28;20032;-79
2021/03/03 00:45:57;;;;;;;71.75;45.45;;;8.50;68.40;;;;;;5094845;28;20024;-80
2021/03/03 00:48:23;;;;;;;75.33;48.37;;;8.50;68.60;;;;;;5095076;28;20358;-80
2021/03/03 00:50:49;;;;;;;90.80;50.55;;;8.40;69.00;;;;;;5095714;28;20097;-79
2021/03/03 00:53:14;;;;;;;86.65;49.85;;;8.30;70.10;;;;;;5094983;28;20089;-80
2021/03/03 00:55:40;;;;;;;85.00;48.63;;;8.10;70.80;;;;;;5095197;28;20032;-80
2021/03/03 00:58:06;;;;;;;70.10;44.80;;;8.10;70.40;;;;;;5094861;28;20020;-79
2021/03/03 01:00:32;;;;;;;72.57;43.80;;;8.00;70.20;;;;;;5094974;28;20107;-79
2021/03/03 01:02:57;;;;;;;70.20;44.73;;;8.10;69.80;;;;;;5094629;28;20024;-79
2021/03/03 01:05:23;;;;;;;74.60;47.20;;;8.00;69.70;;;;;;5094745;28;20028;-79
2021/03/03 01:07:49;;;;;;;80.73;46.13;;;8.00;69.90;;;;;;5094689;28;20032;-80
2021/03/03 01:10:15;;;;;;;78.07;47.03;;;7.80;70.70;;;;;;5094618;28;20032;-80
2021/03/03 01:12:40;;;;;;;77.80;46.23;;;7.80;71.00;;;;;;5094612;28;20107;-79
2021/03/03 01:15:06;;;;;;;82.00;47.13;;;7.80;70.90;;;;;;5093757;28;20469;-80
2021/03/03 01:17:33;;;;;;;76.97;45.17;;;7.70;70.90;;;;;;5093280;28;20120;-80
2021/03/03 01:19:59;;;;;;;74.93;45.73;;;7.60;71.90;;;;;;5094059;28;20370;-80
2021/03/03 01:22:24;;;;;;;76.07;45.20;;;7.70;71.80;;;;;;5092884;28;20062;-79
2021/03/03 01:24:51;;;;;;;86.83;45.90;;;7.80;71.00;;;;;;5092925;28;20040;-79
2021/03/03 01:27:17;;;;;;;79.97;47.57;;;7.60;71.40;;;;;;5095151;28;20051;-80
2021/03/03 01:29:43;;;;;;;80.97;46.43;;;7.70;71.40;;;;;;5094285;28;20024;-80
2021/03/03 01:32:08;;;;;;;86.90;46.57;;;7.70;71.40;;;;;;5094599;28;20139;-79
2021/03/03 01:34:34;;;;;;;76.73;44.63;;;7.70;71.20;;;;;;5092929;28;20024;-79
2021/03/03 01:36:59;;;;;;;78.73;45.60;;;7.50;71.00;;;;;;5094237;28;20024;-79
2021/03/03 01:39:25;;;;;;;77.87;44.83;;;7.60;71.30;;;;;;5094411;28;20465;-80
2021/03/03 01:41:50;;;;;;;72.03;43.40;;;7.60;70.90;;;;;;5094019;28;20032;-80
2021/03/03 01:44:16;;;;;;;66.43;43.20;;;7.70;70.80;;;;;;5093792;28;20028;-80
2021/03/03 01:46:41;;;;;;;69.20;42.67;;;7.70;70.50;;;;;;5094059;28;20038;-79
2021/03/03 01:49:07;;;;;;;74.90;43.63;;;7.60;70.50;;;;;;5092670;28;20036;-80
2021/03/03 01:51:33;;;;;;;71.43;44.20;;;7.50;71.30;;;;;;5094250;28;20119;-80
2021/03/03 01:53:59;;;;;;;70.83;42.93;;;7.50;72.00;;;;;;5094592;28;20473;-79
2021/03/03 01:56:24;;;;;;;73.80;43.67;;;7.40;72.70;;;;;;5092527;28;20032;-80
2021/03/03 01:58:50;;;;;;;70.10;43.57;;;7.50;72.60;;;;;;5094513;28;20415;-79
2021/03/03 02:01:16;;;;;;;74.07;44.87;;;7.60;71.50;;;;;;5093804;28;20115;-79
2021/03/03 02:03:41;;;;;;;74.37;44.53;;;7.70;71.40;;;;;;5092626;28;20032;-79
2021/03/03 02:06:19;;;;;;;72.30;44.80;;;7.70;71.50;;;;;;5092643;28;20458;-79
2021/03/03 02:08:54;;;;;;;79.47;46.67;;;7.60;71.80;;;;;;5092787;28;20020;-79
2021/03/03 02:11:23;;;;;;;80.90;44.40;;;7.70;71.80;;;;;;5092427;28;20484;-79
2021/03/03 02:13:57;;;;;;;80.77;45.83;;;7.60;72.00;;;;;;5092637;28;20024;-78
2021/03/03 02:16:22;;;;;;;74.40;45.13;;;7.70;71.60;;;;;;5093801;28;20377;-79
2021/03/03 02:18:48;;;;;;;75.63;45.50;;;7.70;71.40;;;;;;5092250;28;20039;-79
2021/03/03 02:21:33;;;;;;;89.00;47.10;;;7.70;71.90;;;;;;5092142;28;20064;-79
2021/03/03 02:24:04;;;;;;;76.63;46.83;;;7.70;72.50;;;;;;5092292;28;20031;-79
2021/03/03 02:26:33;;;;;;;;;;;7.70;72.70;;;;;;5094789;28;20020;-79
2021/03/03 02:29:09;;;;;;;79.87;45.77;;;7.70;72.50;;;;;;5096646;28;20046;-78
2021/03/03 02:31:35;;;;;;;78.07;46.03;;;7.70;72.40;;;;;;5079477;28;20107;-78
2021/03/03 02:34:04;;;;;;;81.70;47.17;;;7.80;71.70;;;;;;5096455;28;20035;-79
2021/03/03 02:36:30;;;;;;;92.43;50.87;;;7.90;71.50;;;;;;5096402;28;20026;-78
2021/03/03 02:38:56;;;;;;;83.13;50.00;;;8.00;71.40;;;;;;5096359;28;20024;-79
2021/03/03 02:41:22;;;;;;;89.43;50.20;;;8.00;71.80;;;;;;5096232;28;20036;-79
2021/03/03 02:43:47;;;;;;;93.50;50.50;;;7.80;73.00;;;;;;5096322;28;20085;-78
2021/03/03 02:46:13;;;;;;;88.83;51.17;;;7.70;74.60;;;;;;5096241;28;20031;-79
2021/03/03 02:48:39;;;;;;;83.10;49.43;;;7.60;74.60;;;;;;5095884;28;20039;-79
2021/03/03 02:51:05;;;;;;;85.00;48.80;;;7.60;74.80;;;;;;5096210;28;20062;-79
2021/03/03 02:53:31;;;;;;;80.93;48.00;;;7.60;74.60;;;;;;5095859;28;20093;-79
2021/03/03 02:55:56;;;;;;;79.33;49.27;;;7.50;74.70;;;;;;5096989;28;20066;-79
2021/03/03 02:58:22;;;;;;;74.60;48.00;;;7.50;75.30;;;;;;5097219;28;20028;-79
2021/03/03 03:00:50;;;;;;;78.53;47.67;;;7.50;75.20;;;;;;5096348;28;20427;-79
2021/03/03 03:03:33;;;;;;;87.07;46.17;;;7.60;75.00;;;;;;5096090;28;20024;-79
2021/03/03 03:06:06;;;;;;;83.45;47.13;;;7.70;74.50;;;;;;5096081;28;20482;-79
2021/03/03 03:08:32;;;;;;;83.33;48.23;;;7.60;74.70;;;;;;5095922;28;20031;-79
2021/03/03 03:11:02;;;;;;;83.17;48.20;;;7.70;74.10;;;;;;5095754;28;20031;-78
2021/03/03 03:13:29;;;;;;;87.80;47.43;;;7.70;74.10;;;;;;5096910;28;20025;-79
2021/03/03 03:15:54;;;;;;;77.03;47.27;;;7.50;74.60;;;;;;5097735;28;20019;-79
2021/03/03 03:18:24;;;;;;;76.07;46.83;;;7.60;74.30;;;;;;5097166;28;20512;-79
2021/03/03 03:20:49;;;;;;;79.43;48.30;;;7.70;73.70;;;;;;5095896;28;20035;-79
2021/03/03 03:23:15;;;;;;;79.90;47.90;;;7.80;73.30;;;;;;5095693;28;20036;-79
2021/03/03 03:25:41;;;;;;;84.50;49.90;;;7.80;73.00;;;;;;5095203;28;20048;-79
2021/03/03 03:28:06;;;;;;;88.83;50.93;;;7.80;73.00;;;;;;5095703;28;20016;-79
2021/03/03 03:30:32;;;;;;;83.87;50.27;;;7.80;73.40;;;;;;5095810;28;20027;-79
2021/03/03 03:32:59;;;;;;;79.03;47.60;;;7.70;73.80;;;;;;5095551;28;20024;-79
2021/03/03 03:35:27;;;;;;;80.93;49.80;;;7.60;74.30;;;;;;5095533;28;20494;-79
2021/03/03 03:37:53;;;;;;;81.70;47.20;;;7.50;75.10;;;;;;5094320;28;20027;-78
2021/03/03 03:40:20;;;;;;;82.00;48.67;;;7.60;74.60;;;;;;5095250;28;20024;-79
2021/03/03 03:42:45;;;;;;;84.87;48.60;;;7.60;73.90;;;;;;5078226;28;20028;-78
2021/03/03 03:45:11;;;;;;;81.23;48.13;;;7.60;74.10;;;;;;5095109;28;20032;-79
2021/03/03 03:47:37;;;;;;;82.77;49.77;;;7.60;73.80;;;;;;5095011;28;20032;-79
2021/03/03 03:50:04;;;;;;;89.17;49.47;;;7.50;74.40;;;;;;5094794;28;20037;-78
2021/03/03 03:52:29;;;;;;;89.83;48.73;;;7.60;73.80;;;;;;5094895;28;20071;-79
2021/03/03 03:54:55;;;;;;;91.47;51.57;;;7.60;73.60;;;;;;5094656;28;20055;-79
2021/03/03 03:57:21;;;;;;;89.30;49.53;;;7.60;73.50;;;;;;5096409;28;20036;-79
2021/03/03 03:59:47;;;;;;;87.53;49.40;;;7.50;73.30;;;;;;5096119;28;20449;-79
2021/03/03 04:02:12;;;;;;;86.83;48.30;;;7.40;73.10;;;;;;5094771;28;20147;-79
2021/03/03 04:04:38;;;;;;;80.97;48.50;;;7.30;73.10;;;;;;5095884;28;20031;-79
2021/03/03 04:07:04;;;;;;;94.33;50.93;;;7.20;73.30;;;;;;5095892;28;20024;-79
2021/03/03 04:09:30;;;;;;;100.10;50.83;;;7.00;74.30;;;;;;5095850;28;20028;-79
2021/03/03 04:11:56;;;;;;;86.60;50.00;;;7.00;74.90;;;;;;5096065;28;20431;-79
2021/03/03 04:14:22;;;;;;;92.47;49.13;;;6.80;76.10;;;;;;5096279;28;20031;-79
2021/03/03 04:16:47;;;;;;;82.90;47.87;;;6.80;76.80;;;;;;5095416;28;20491;-79
2021/03/03 04:19:13;;;;;;;79.63;44.63;;;6.80;76.70;;;;;;5094490;28;20032;-79
2021/03/03 04:21:39;;;;;;;79.73;47.57;;;6.70;77.80;;;;;;5095514;28;20457;-79
2021/03/03 04:24:05;;;;;;;76.23;44.03;;;6.70;78.00;;;;;;5095586;28;20034;-79
2021/03/03 04:26:30;;;;;;;77.47;48.30;;;6.70;78.30;;;;;;5095058;28;20032;-79
2021/03/03 04:28:56;;;;;;;88.20;48.67;;;7.00;77.40;;;;;;5094266;28;20016;-79
2021/03/03 04:31:22;;;;;;;79.97;47.67;;;7.20;76.20;;;;;;5095197;28;20067;-79
2021/03/03 04:33:47;;;;;;;78.17;48.17;;;7.40;75.10;;;;;;5095106;28;20027;-79
2021/03/03 04:36:13;;;;;;;79.67;47.17;;;7.40;75.50;;;;;;5095089;28;20103;-78
2021/03/03 04:38:38;;;;;;;75.93;46.97;;;7.30;75.60;;;;;;5095714;28;20039;-79
2021/03/03 04:41:04;;;;;;;81.77;47.80;;;7.40;75.90;;;;;;5094903;28;20032;-79
2021/03/03 04:43:29;;;;;;;73.53;46.07;;;7.40;76.10;;;;;;5095172;28;20393;-79
2021/03/03 04:45:55;;;;;;;79.33;47.23;;;7.50;75.60;;;;;;5095143;28;20024;-79
2021/03/03 04:48:20;;;;;;;83.57;48.33;;;7.70;75.00;;;;;;5094816;28;20078;-79
2021/03/03 04:50:46;;;;;;;83.80;47.53;;;7.90;74.50;;;;;;5094717;28;20040;-79
2021/03/03 04:53:12;;;;;;;75.30;48.20;;;7.80;74.60;;;;;;5094662;28;20043;-80
2021/03/03 04:55:37;;;;;;;73.63;46.43;;;7.80;75.00;;;;;;5095055;28;20119;-79
2021/03/03 04:58:03;;;;;;;81.70;45.67;;;7.80;75.00;;;;;;5093380;28;20067;-79
2021/03/03 05:00:28;;;;;;;84.10;46.43;;;7.90;74.80;;;;;;5094904;28;20074;-79
2021/03/03 05:02:54;;;;;;;84.40;46.17;;;8.00;74.50;;;;;;5095067;28;20544;-79
2021/03/03 05:05:20;;;;;;;82.67;46.57;;;7.90;74.20;;;;;;5094814;28;20028;-79
2021/03/03 05:07:45;;;;;;;73.83;45.77;;;8.00;74.10;;;;;;5094627;28;20078;-79
2021/03/03 05:10:11;;;;;;;79.97;45.67;;;8.10;73.90;;;;;;5094413;28;20024;-79
2021/03/03 05:12:37;;;;;;;76.60;45.40;;;8.10;74.10;;;;;;5094289;28;20111;-79
2021/03/03 05:15:04;;;;;;;80.37;45.80;;;8.00;74.60;;;;;;5094527;28;20504;-79
2021/03/03 05:17:29;;;;;;;78.57;46.17;;;8.00;75.00;;;;;;5094473;28;20020;-79
2021/03/03 05:19:55;;;;;;;85.37;47.13;;;8.10;74.80;;;;;;5093226;28;20032;-80
2021/03/03 05:22:20;;;;;;;76.23;46.70;;;8.00;75.30;;;;;;5094273;28;20507;-80
2021/03/03 05:24:46;;;;;;;83.37;46.50;;;8.00;76.20;;;;;;5094369;28;20059;-80
2021/03/03 05:27:11;;;;;;;77.97;44.00;;;7.90;76.90;;;;;;5094625;28;20077;-80
2021/03/03 05:29:37;;;;;;;82.27;46.07;;;7.80;77.30;;;;;;5094636;28;20035;-81
2021/03/03 05:32:03;;;;;;;70.03;44.77;;;7.70;78.00;;;;;;5095075;28;20044;-80
2021/03/03 05:34:28;;;;;;;74.23;44.27;;;7.70;78.80;;;;;;5094253;28;20028;-80
2021/03/03 05:36:54;;;;;;;73.37;45.93;;;7.50;79.40;;;;;;5094297;28;20063;-80
2021/03/03 05:39:19;;;;;;;81.80;45.20;;;7.70;79.20;;;;;;5093963;28;20393;-80
2021/03/03 05:41:45;;;;;;;73.43;46.53;;;7.60;79.50;;;;;;5092924;28;20036;-80
2021/03/03 05:44:10;;;;;;;80.63;49.10;;;7.50;80.00;;;;;;5093228;28;20035;-80
2021/03/03 05:46:37;;;;;;;75.37;48.30;;;7.50;80.40;;;;;;5092883;28;20028;-81
2021/03/03 05:49:03;;;;;;;77.80;49.97;;;7.50;80.60;;;;;;5094094;28;20040;-81
2021/03/03 05:51:29;;;;;;;84.50;54.67;;;7.60;79.70;;;;;;5092842;28;20396;-80
2021/03/03 05:53:55;;;;;;;80.20;53.80;;;7.60;79.80;;;;;;5076105;28;20449;-80
2021/03/03 05:56:24;;;;;;;92.93;53.13;;;7.70;79.60;;;;;;5093691;28;20028;-80
2021/03/03 05:58:50;;;;;;;88.27;52.17;;;7.80;79.40;;;;;;5093886;28;20080;-80
2021/03/03 06:01:16;;;;;;;86.43;51.63;;;7.70;78.30;;;;;;5092310;28;20418;-80
2021/03/03 06:03:41;;;;;;;77.73;50.00;;;7.80;77.40;;;;;;5094104;28;20465;-80
2021/03/03 06:06:07;;;;;;;87.70;56.17;;;7.90;77.20;;;;;;5093921;28;20043;-80
2021/03/03 06:08:34;;;;;;;99.40;54.10;;;7.70;77.40;;;;;;5093916;28;20020;-81
2021/03/03 06:10:59;;;;;;;95.80;53.30;;;7.60;77.90;;;;;;5093636;28;20032;-81
2021/03/03 06:13:25;;;;;;;92.73;53.70;;;7.40;78.30;;;;;;5092670;28;20035;-81
2021/03/03 06:15:51;;;;;;;96.10;56.90;;;7.30;78.80;;;;;;5091018;28;20034;-82
2021/03/03 06:18:17;;;;;;;103.47;56.37;;;7.10;79.00;;;;;;5091662;28;20055;-81
2021/03/03 06:20:47;;;;;;;94.13;54.80;;;7.10;79.30;;;;;;5093212;28;20058;-81
2021/03/03 06:23:26;;;;;;;85.93;53.50;;;7.10;79.20;;;;;;5093296;28;20111;-81
2021/03/03 06:25:58;;;;;;;93.40;54.13;;;7.00;79.50;;;;;;5093597;28;20095;-81
2021/03/03 06:28:33;;;;;;;102.07;54.77;;;6.80;79.80;;;;;;5093581;28;20036;-81
2021/03/03 06:30:59;;;;;;;99.60;56.70;;;6.70;79.40;;;;;;5090442;28;20059;-82
2021/03/03 06:33:25;;;;;;;101.70;56.20;;;6.80;79.90;;;;;;5091309;28;20100;-81
2021/03/03 06:35:51;;;;;;;99.57;57.97;;;6.80;79.90;;;;;;5092037;28;20024;-81
2021/03/03 06:38:24;;;;;;;102.20;58.90;;;6.70;80.20;;;;;;5093523;28;20036;-81
2021/03/03 06:40:50;;;;;;;94.67;55.63;;;6.70;80.10;;;;;;5091893;28;20473;-81
2021/03/03 06:43:20;;;;;;;96.40;55.37;;;6.70;80.10;;;;;;5093383;28;20059;-81
2021/03/03 06:45:45;;;;;;;90.60;53.23;;;6.70;79.80;;;;;;5092272;28;20393;-81
2021/03/03 06:48:11;;;;;;;95.53;55.30;;;6.70;79.60;;;;;;5093775;28;20073;-80
2021/03/03 06:50:38;;;;;;;91.23;53.07;;;6.60;79.80;;;;;;5093543;28;20032;-81
2021/03/03 06:53:03;;;;;;;86.97;54.17;;;6.70;79.50;;;;;;5091681;28;20020;-82
2021/03/03 06:55:49;;;;;;;92.17;56.17;;;6.60;79.60;;;;;;5092084;28;20034;-80
2021/03/03 06:58:28;;;;;;;91.50;55.33;;;6.70;79.90;;;;;;5093323;28;20111;-81
2021/03/03 07:00:54;;;;;;;85.33;54.33;;;6.80;79.80;;;;;;5093250;28;20029;-81
2021/03/03 07:03:35;;;;;;;85.97;53.83;;;6.80;79.90;;;;;;5093383;28;20029;-81
2021/03/03 07:06:01;;;;;;;88.07;53.78;;;6.70;80.00;;;;;;5093493;28;20031;-81
2021/03/03 07:08:27;;;;;;;83.97;52.47;;;6.90;79.50;;;;;;5093257;28;20022;-81
2021/03/03 07:10:53;;;;;;;86.33;53.77;;;7.00;79.10;;;;;;5093328;28;20119;-81
2021/03/03 07:13:21;;;;;;;82.87;51.33;;;7.10;78.70;;;;;;5094596;28;20027;-81
2021/03/03 07:15:47;;;;;;;93.93;50.53;;;7.00;79.00;;;;;;5095512;28;20377;-81
2021/03/03 07:18:32;;;;;;;89.33;50.60;;;7.20;78.60;;;;;;5095398;28;20028;-81
2021/03/03 07:20:58;;;;;;;85.70;49.97;;;7.20;78.10;;;;;;5095231;28;20477;-81
2021/03/03 07:23:43;;;;;;;84.37;48.63;;;7.30;77.70;;;;;;5084227;28;20035;-83
2021/03/03 07:26:10;;;;;;;92.93;48.90;;;7.40;77.50;;;;;;5090580;28;20024;-82
2021/03/03 07:28:36;;;;;;;85.50;47.10;;;7.30;77.90;;;;;;5089495;28;20016;-82
2021/03/03 07:31:02;;;;;;;83.40;48.90;;;7.30;78.10;;;;;;5093464;28;20423;-82
2021/03/03 07:33:27;;;;;;;86.33;49.50;;;7.30;78.60;;;;;;5094292;28;20029;-81
2021/03/03 07:35:53;;;;;;;93.00;50.53;;;7.40;78.80;;;;;;5094957;28;20028;-82
2021/03/03 07:38:19;;;;;;;79.53;47.50;;;7.50;78.30;;;;;;5075647;28;20020;-82
2021/03/03 07:40:44;;;;;;;82.03;47.97;;;7.60;78.00;;;;;;5093903;28;20553;-82
2021/03/03 07:43:11;;;;;;;85.17;50.27;;;7.70;78.10;;;;;;5094945;28;20035;-82
2021/03/03 07:45:37;;;;;;;74.07;46.73;;;7.80;78.50;;;;;;5094158;28;20017;-82
2021/03/03 07:48:08;;;;;;;81.43;47.53;;;7.80;78.50;;;;;;5095436;28;20052;-82
2021/03/03 07:50:33;;;;;;;75.07;47.58;;;8.00;78.10;;;;;;5094205;28;20039;-82
2021/03/03 07:52:59;;;;;;;77.00;47.23;;;8.10;77.60;;;;;;5091118;28;20040;-82
2021/03/03 07:55:25;;;;;;;82.77;48.70;;;8.20;77.20;;;;;;5088504;28;20389;-81
2021/03/03 07:57:52;;;;;;;87.95;49.13;;;8.40;76.90;;;;;;5094257;28;20074;-81
2021/03/03 08:00:28;;;;;;;85.95;49.95;;;8.60;76.20;;;;;;5094546;28;20024;-81
2021/03/03 08:02:54;;;;;;;81.68;50.67;;;8.70;75.80;;;;;;5094293;28;20103;-81
2021/03/03 08:05:29;;;;;;;85.38;52.85;;;8.80;75.40;;;;;;5095566;28;20035;-81
2021/03/03 08:08:13;;;;;;;79.22;52.65;;;8.90;75.10;;;;;;5094057;28;20078;-81
2021/03/03 08:10:41;;;;;;;87.43;52.43;;;9.00;75.00;;;;;;5095399;28;20385;-82
2021/03/03 08:13:14;;;;;;;82.43;52.97;;;9.00;75.00;;;;;;5094718;28;20099;-82
2021/03/03 08:15:48;;;;;;;89.05;55.35;;;9.00;75.30;;;;;;5094064;28;20038;-82
2021/03/03 08:18:13;;;;;;;95.13;63.20;;;9.00;75.50;;;;;;5092418;28;20051;-81
2021/03/03 08:20:43;;;;;;;91.70;64.97;;;9.00;75.60;;;;;;5094500;28;20032;-82
2021/03/03 08:23:08;;;;;;;86.90;58.33;;;9.10;75.90;;;;;;5088924;28;20574;-82
2021/03/03 08:25:41;;;;;;;92.30;57.23;;;9.10;76.70;;;;;;5090145;28;20020;-81
2021/03/03 08:28:22;;;;;;;85.17;53.17;;;9.00;77.70;;;;;;5094359;28;20400;-82
2021/03/03 08:31:08;;;;;;;84.38;53.22;;;9.10;77.90;;;;;;5095162;28;20039;-82
2021/03/03 08:33:36;;;;;;;83.15;50.25;;;9.10;77.90;;;;;;5090630;28;20032;-82
2021/03/03 08:36:03;;;;;;;84.20;54.03;;;9.20;78.00;;;;;;5091789;28;20418;-82
2021/03/03 08:38:28;;;;;;;93.75;56.67;;;9.40;77.60;;;;;;5094477;28;20038;-82
2021/03/03 08:41:14;;;;;;;86.35;54.55;;;9.50;77.10;;;;;;5094924;28;20021;-82
2021/03/03 08:43:40;;;;;;;90.13;54.58;;;9.60;76.60;;;;;;5093529;28;20480;-82
2021/03/03 08:46:20;;;;;;;85.50;54.00;;;9.70;76.30;;;;;;5094634;28;20024;-82
2021/03/03 08:48:52;;;;;;;79.93;54.80;;;9.90;76.10;;;;;;5094393;28;20465;-82
2021/03/03 08:51:25;;;;;;;86.57;56.83;;;10.10;75.40;;;;;;5094749;28;20043;-82
2021/03/03 08:53:53;;;;;;;86.07;57.63;;;10.20;75.40;;;;;;5085320;28;20024;-82
2021/03/03 08:56:41;;;;;;;103.80;58.40;;;10.20;74.90;;;;;;5092549;28;20468;-83
2021/03/03 08:59:13;;;;;;;84.15;56.70;;;10.10;74.70;;;;;;5094329;28;20031;-82
2021/03/03 09:01:58;;;;;;;82.05;56.83;;;10.00;75.80;;;;;;5093172;28;20020;-81
2021/03/03 09:04:25;;;;;;;81.07;56.15;;;9.80;76.50;;;;;;5094459;28;20473;-82
2021/03/03 09:06:52;;;;;;;82.22;54.97;;;9.90;76.40;;;;;;5094338;28;20116;-82
2021/03/03 09:09:21;;;;;;;75.22;54.70;;;9.90;76.40;;;;;;5094350;28;20028;-81
2021/03/03 09:11:47;;;;;;;83.82;56.35;;;10.00;76.70;;;;;;5093522;28;20028;-82
2021/03/03 09:14:13;;;;;;;82.07;54.80;;;10.20;76.50;;;;;;5094297;28;20381;-82
2021/03/03 09:16:55;;;;;;;87.20;53.75;;;10.40;75.50;;;;;;5094225;28;20060;-82
2021/03/03 09:19:20;;;;;;;81.07;53.38;;;10.70;73.90;;;;;;5094216;28;20027;-82
2021/03/03 09:21:46;;;;;;;82.90;53.63;;;10.60;73.90;;;;;;5094318;28;20032;-82
2021/03/03 09:24:13;;;;;;;86.45;52.90;;;10.40;74.40;;;;;;5083629;28;20119;-82
2021/03/03 09:26:38;;;;;;;75.63;52.95;;;10.30;75.30;;;;;;5090467;28;20024;-81
2021/03/03 09:29:04;;;;;;;75.30;53.00;;;10.30;75.80;;;;;;5093601;28;20453;-82
2021/03/03 09:31:38;;;;;;;78.57;50.35;;;10.30;74.90;;;;;;5090844;28;20032;-81
2021/03/03 09:34:04;;;;;;;81.45;53.05;;;10.30;75.50;;;;;;5092794;28;20115;-81
2021/03/03 09:36:29;;;;;;;85.13;53.30;;;10.40;75.60;;;;;;5092741;28;20060;-82
2021/03/03 09:39:00;;;;;;;85.65;52.03;;;10.60;74.80;;;;;;5075323;28;20032;-82
2021/03/03 09:41:26;;;;;;;84.17;52.30;;;10.90;73.20;;;;;;5093015;28;20036;-82
2021/03/03 09:44:03;;;;;;;75.60;51.15;;;10.90;73.10;;;;;;5090524;28;20912;-82
2021/03/03 09:46:49;;;;;;;73.70;50.95;;;11.10;72.60;;;;;;5091799;28;20107;-82
2021/03/03 09:49:22;;;;;;;73.55;49.30;;;11.20;72.70;;;;;;5093254;28;20032;-82
2021/03/03 09:51:48;;;;;;;72.70;48.33;;;11.20;71.50;;;;;;5088783;28;20031;-81
2021/03/03 09:54:40;;;;;;;64.38;46.60;;;11.00;71.80;;;;;;5092974;28;20039;-81
2021/03/03 09:57:11;;;;;;;86.65;46.20;;;11.00;71.80;;;;;;5088293;28;20035;-82
2021/03/03 09:59:42;;;;;;;73.37;43.57;;;11.00;71.80;;;;;;5092204;28;20077;-81
2021/03/03 10:02:07;;;;;;;;;;;11.00;71.00;;;;;;5075974;28;20078;-81
2021/03/03 10:04:36;;;;;;;69.55;43.63;;;11.00;71.20;;;;;;5091524;28;20311;-81
2021/03/03 10:07:02;;;;;;;74.78;45.67;;;11.00;71.60;;;;;;5092955;28;20426;-81
2021/03/03 10:09:28;;;;;;;77.18;45.83;;;11.00;71.20;;;;;;5091673;28;20017;-82
2021/03/03 10:11:53;;;;;;;72.38;44.95;;;11.10;71.00;;;;;;5091036;28;20035;-81
2021/03/03 10:14:19;;;;;;;73.65;47.10;;;11.30;71.10;;;;;;5075330;28;20028;-81
2021/03/03 10:17:02;;;;;;;70.63;45.50;;;11.60;70.50;;;;;;5075131;28;20024;-82
2021/03/03 10:19:28;;;;;;;86.13;46.70;;;11.60;69.50;;;;;;5092986;28;20035;-81
2021/03/03 10:21:53;;;;;;;73.78;45.67;;;11.70;69.60;;;;;;5093038;28;20032;-82
2021/03/03 10:24:20;;;;;;;72.65;48.17;;;11.70;69.50;;;;;;5065153;28;20383;-81
2021/03/03 10:26:47;;;;;;;71.47;44.72;;;11.90;69.30;;;;;;5092564;28;20032;-85
2021/03/03 10:29:33;;;;;;;75.68;47.17;;;11.90;68.60;;;;;;5091636;28;20530;-80
2021/03/03 10:32:12;;;;;;;80.97;46.97;;;11.80;69.40;;;;;;5091799;28;20472;-81
2021/03/03 10:34:38;;;;;;;73.22;45.08;;;11.80;69.60;;;;;;5092716;28;20461;-79
2021/03/03 10:37:04;;;;;;;67.68;45.08;;;11.80;69.30;;;;;;5092622;28;20030;-80
2021/03/03 10:39:30;;;;;;;71.25;45.85;;;11.80;69.60;;;;;;5092906;28;20082;-79
2021/03/03 10:42:05;;;;;;;65.20;45.30;;;12.00;68.80;;;;;;5092801;28;20523;-79
2021/03/03 10:44:41;;;;;;;72.28;44.28;;;12.00;69.00;;;;;;5090039;28;20020;-80
2021/03/03 10:47:07;;;;;;;70.75;46.80;;;12.10;68.60;;;;;;5092705;28;20024;-79
2021/03/03 10:49:35;;;;;;;76.72;47.53;;;12.20;68.30;;;;;;5095357;28;20044;-80
2021/03/03 10:52:00;;;;;;;76.00;46.17;;;12.40;68.50;;;;;;5096741;28;20118;-81
2021/03/03 10:54:32;;;;;;;68.65;45.92;;;12.50;67.70;;;;;;5085351;28;20513;-80
2021/03/03 10:57:10;;;;;;;75.97;46.50;;;12.70;67.10;;;;;;5095629;28;20031;-80
2021/03/03 10:59:38;;;;;;;79.13;45.85;;;12.80;65.90;;;;;;5096745;28;20036;-80
2021/03/03 11:02:05;;;;;;;75.13;46.50;;;12.90;65.90;;;;;;5096585;28;20067;-80
2021/03/03 11:04:40;;;;;;;78.55;45.22;;;13.00;65.80;;;;;;5078519;28;20397;-83
2021/03/03 11:07:06;;;;;;;78.70;46.25;;;13.10;66.00;;;;;;5095728;28;20028;-81
2021/03/03 11:09:32;;;;;;;70.80;43.53;;;13.10;65.40;;;;;;5096823;28;20154;-81
2021/03/03 11:11:58;;;;;;;78.90;45.63;;;13.20;65.20;;;;;;5096598;28;20060;-80
2021/03/03 11:14:28;;;;;;;68.90;45.40;;;13.20;65.10;;;;;;5096647;28;20024;-80
2021/03/03 11:16:54;;;;;;;74.35;47.03;;;13.10;64.80;;;;;;5095779;28;20475;-80
2021/03/03 11:19:20;;;;;;;76.63;49.70;;;13.30;65.40;;;;;;5096654;28;20060;-80
2021/03/03 11:21:46;;;;;;;75.80;49.35;;;13.30;65.90;;;;;;5096652;28;20121;-80
2021/03/03 11:24:11;;;;;;;86.47;48.70;;;13.60;64.90;;;;;;5096639;28;20040;-80
2021/03/03 11:26:40;;;;;;;85.28;47.30;;;13.80;63.70;;;;;;5096907;28;20035;-80
2021/03/03 11:29:06;;;;;;;70.70;46.00;;;13.70;63.50;;;;;;5095554;28;20028;-79
2021/03/03 11:31:32;;;;;;;71.57;45.90;;;13.60;63.40;;;;;;5097403;28;20032;-80
2021/03/03 11:33:57;;;;;;;68.82;42.75;;;13.70;63.10;;;;;;5097164;28;20036;-80
2021/03/03 11:36:23;;;;;;;70.07;43.35;;;14.00;61.40;;;;;;5095131;28;20122;-81
2021/03/03 11:38:48;;;;;;;72.93;46.83;;;14.00;59.70;;;;;;5096459;28;20028;-81
2021/03/03 11:41:14;;;;;;;81.15;46.50;;;13.80;62.60;;;;;;5095954;28;20389;-80
2021/03/03 11:43:40;;;;;;;76.88;45.25;;;13.90;62.50;;;;;;5096759;28;20032;-80
2021/03/03 11:46:06;;;;;;;64.00;43.40;;;14.00;61.20;;;;;;5096301;28;20422;-80
2021/03/03 11:48:31;;;;;;;76.22;44.78;;;14.10;61.70;;;;;;5096866;28;20027;-81
2021/03/03 11:50:57;;;;;;;61.90;42.92;;;14.10;61.80;;;;;;5097089;28;20036;-80
2021/03/03 11:53:23;;;;;;;73.90;44.13;;;14.10;61.60;;;;;;5096144;28;20077;-80
2021/03/03 11:55:49;;;;;;;66.70;40.92;;;14.10;61.40;;;;;;5095776;28;20028;-81
2021/03/03 11:58:14;;;;;;;76.40;42.63;;;14.10;60.80;;;;;;5095262;28;20046;-80
2021/03/03 12:00:40;;;;;;;67.70;42.45;;;14.30;60.70;;;;;;5096117;28;20082;-81
2021/03/03 12:03:06;;;;;;;67.22;42.03;;;14.40;60.20;;;;;;5095731;28;20070;-80
2021/03/03 12:05:31;;;;;;;68.82;43.25;;;14.50;59.00;;;;;;5096204;28;20054;-80
2021/03/03 12:07:57;;;;;;;65.70;42.90;;;14.70;59.20;;;;;;5095593;28;20031;-80
2021/03/03 12:10:23;;;;;;;72.30;42.95;;;15.00;58.70;;;;;;5085117;28;20039;-81
2021/03/03 12:12:48;;;;;;;66.45;42.42;;;14.90;58.80;;;;;;5093459;28;20035;-81
2021/03/03 12:15:14;;;;;;;62.90;40.90;;;14.90;58.80;;;;;;5095227;28;20388;-81
2021/03/03 12:17:40;;;;;;;63.25;41.85;;;15.00;58.30;;;;;;5095554;28;20051;-81
2021/03/03 12:20:06;;;;;;;67.07;42.10;;;15.30;57.10;;;;;;5094180;28;20040;-81
2021/03/03 12:22:32;;;;;;;60.42;41.15;;;15.90;56.80;;;;;;5094333;28;20056;-81
2021/03/03 12:24:58;;;;;;;74.22;38.88;;;16.10;54.90;;;;;;5093785;28;20062;-81
2021/03/03 12:27:23;;;;;;;55.38;36.10;;;16.10;54.30;;;;;;5095688;28;20060;-81
2021/03/03 12:29:49;;;;;;;53.55;37.38;;;15.90;54.00;;;;;;5095684;28;20439;-81
2021/03/03 12:32:15;;;;;;;62.33;36.72;;;15.80;55.00;;;;;;5094834;28;20032;-81
2021/03/03 12:34:40;;;;;;;55.15;36.63;;;15.70;55.20;;;;;;5095204;28;20035;-82
2021/03/03 12:37:06;;;;;;;66.25;38.33;;;15.90;57.10;;;;;;5090010;28;20435;-81